Latest Weather Observations for Redcliffe

IDQ60901

Issued at 7:01 am EST Monday 27 April 2015 (issued every 10 minutes, with the page automatically refreshed every 10 minutes)

About weather observations | Map of Brisbane area stations | Latest observations for Brisbane area | Other Formats
Station Details ID: 040958 Name: REDCLIFFE Lat: -27.22 Lon: 153.09 Height: 12.6 m
Data from the previous 72 hours. | See also: Recent months at Redcliffe
Date/Time
EST
Tmp

°C
App
Tmp
°C
Dew
Point
°C
Rel
Hum
%
Delta-T

°C
Wind Press
QNH
hPa
Press
MSL
hPa
Rain
since
9 am
mm
Dir
 
Spd
km/h
Gust
km/h
Spd
kts
Gust
kts
27/07:00am 13.8 10.7 7.3 65 3.2 WSW 13 17 7 9 1017.3 1017.2 0.0
27/06:30am 13.0 10.2 6.8 66 3.0 WSW 11 13 6 7 1016.9 1016.8 0.0
27/06:00am 12.9 9.3 6.9 67 2.9 WSW 15 19 8 10 1016.6 1016.5 0.0
27/05:30am 13.0 10.2 6.8 66 3.0 WSW 11 13 6 7 1016.3 1016.2 0.0
27/05:00am 13.2 10.2 5.9 61 3.4 W 11 13 6 7 1016.0 1015.9 0.0
27/04:30am 14.3 11.7 6.2 58 3.9 W 9 15 5 8 1015.8 1015.7 0.0
27/04:00am 13.4 11.2 6.0 61 3.5 W 7 9 4 5 1015.5 1015.4 0.0
27/03:30am 13.4 11.2 6.0 61 3.5 WNW 7 9 4 5 1015.4 1015.3 0.0
27/03:00am 14.0 11.0 6.1 59 3.8 WSW 11 15 6 8 1015.4 1015.3 0.0
27/02:30am 14.5 11.1 5.8 56 4.1 WSW 13 15 7 8 1015.1 1015.0 0.0
27/02:00am 14.6 11.5 5.7 55 4.2 W 11 13 6 7 1015.1 1015.0 0.0
27/01:30am 14.7 11.7 5.8 55 4.2 WSW 11 13 6 7 1015.1 1015.0 0.0
27/01:00am 15.1 12.4 5.6 53 4.5 WSW 9 13 5 7 1015.2 1015.1 0.0
27/12:30am 15.3 11.9 5.8 53 4.6 WSW 13 19 7 10 1015.3 1015.2 0.0
27/12:00am 15.4 11.6 5.6 52 4.7 WSW 15 24 8 13 1015.6 1015.5 0.0
 
Date/Time
EST
Tmp

°C
App
Tmp
°C
Dew
Point
°C
Rel
Hum
%
Delta-T

°C
Wind Press
QNH
hPa
Press
MSL
hPa
Rain
since
9 am
mm
Dir
 
Spd
km/h
Gust
km/h
Spd
kts
Gust
kts
26/11:30pm 16.3 11.7 5.6 49 5.1 WSW 19 28 10 15 1015.6 1015.5 0.0
26/11:00pm 16.5 11.7 5.5 48 5.3 SW 20 28 11 15 1015.8 1015.7 0.0
26/10:30pm 16.6 11.4 5.3 47 5.4 SW 22 32 12 17 1015.7 1015.6 0.0
26/10:00pm 17.3 11.7 5.3 45 5.8 SW 24 32 13 17 1015.7 1015.6 0.0
26/09:30pm 17.1 12.4 5.1 45 5.7 SW 19 32 10 17 1016.1 1016.0 0.0
26/09:00pm 17.6 12.3 4.9 43 6.1 WSW 22 30 12 16 1015.5 1015.4 0.0
26/08:30pm 17.6 13.9 4.5 42 6.2 W 13 22 7 12 1015.7 1015.6 0.0
26/08:00pm 17.9 12.9 4.8 42 6.3 W 20 32 11 17 1015.5 1015.4 0.0
26/07:30pm 18.4 12.9 4.2 39 6.7 W 22 35 12 19 1015.0 1014.9 0.0
26/07:00pm 18.3 13.5 4.5 40 6.6 W 19 30 10 16 1015.0 1014.9 0.0
26/06:30pm 18.5 13.6 4.3 39 6.8 WSW 19 26 10 14 1014.3 1014.2 0.0
26/06:00pm 18.7 14.7 4.8 40 6.7 W 15 20 8 11 1013.9 1013.8 0.0
26/05:30pm 19.0 13.5 4.0 37 7.1 WSW 22 41 12 22 1013.3 1013.2 0.0
26/05:00pm 20.1 15.0 3.3 33 7.9 WSW 19 28 10 15 1012.6 1012.5 0.0
26/04:30pm 20.7 14.3 3.4 32 8.2 WSW 26 37 14 20 1011.9 1011.8 0.0
26/04:05pm 21.2 14.5 3.4 31 8.5 W 28 46 15 25 1011.3 1011.2 0.0
26/04:00pm 21.3 14.9 3.0 30 8.7 W 26 39 14 21 1011.3 1011.2 0.0
26/03:30pm 22.2 14.6 2.8 28 9.2 WSW 32 43 17 23 1011.4 1011.3 0.0
26/03:00pm 22.2 15.6 1.8 26 9.5 WSW 26 43 14 23 1010.5 1010.4 0.0
26/02:30pm 22.4 15.0 2.0 26 9.6 WSW 30 44 16 24 1010.5 1010.4 0.0
26/02:09pm 22.8 15.9 2.3 26 9.7 WSW 28 50 15 27 1010.3 1010.2 0.0
26/02:00pm 22.8 15.6 2.8 27 9.6 WSW 30 46 16 25 1010.2 1010.1 0.0
26/01:30pm 22.4 15.0 2.0 26 9.6 SW 30 48 16 26 1010.3 1010.2 0.0
26/01:27pm 22.6 15.5 1.6 25 9.8 WSW 28 48 15 26 1010.3 1010.2 0.0
26/01:00pm 22.5 15.2 2.6 27 9.4 WSW 30 44 16 24 1010.1 1010.0 0.0
26/12:40pm 22.7 15.7 2.2 26 9.7 W 28 46 15 25 1010.1 1010.0 0.0
26/12:30pm 22.1 16.3 2.2 27 9.3 W 22 41 12 22 1009.9 1009.8 0.0
26/12:00pm 22.0 15.0 4.1 31 8.7 W 30 50 16 27 1010.0 1009.9 0.0
26/11:42am 21.8 14.6 3.0 29 8.9 W 30 48 16 26 1010.0 1009.9 0.0
26/11:30am 22.1 15.4 3.7 30 8.9 W 28 43 15 23 1010.3 1010.2 0.0
26/11:00am 21.1 15.5 3.3 31 8.5 W 22 35 12 19 1010.8 1010.7 0.0
26/10:30am 21.1 14.7 5.1 35 7.9 WNW 28 35 15 19 1011.4 1011.3 0.0
26/10:00am 19.8 14.0 4.3 36 7.5 W 24 39 13 21 1011.7 1011.6 0.0
26/09:30am 19.2 12.6 4.2 37 7.2 WSW 28 46 15 25 1012.3 1012.2 0.0
26/09:00am 19.0 11.4 2.8 34 7.5 WSW 32 54 17 29 1012.6 1012.5 0.0
26/08:49am 18.9 12.2 3.9 37 7.1 WSW 28 48 15 26 1012.5 1012.4 0.0
26/08:30am 18.8 12.4 3.4 36 7.2 WSW 26 39 14 21 1012.6 1012.5 0.0
26/08:00am 18.7 11.9 3.3 36 7.2 WSW 28 41 15 22 1012.6 1012.5 0.0
26/07:30am 18.4 12.3 2.7 35 7.2 WSW 24 41 13 22 1012.4 1012.3 0.0
26/07:00am 18.2 11.4 2.9 36 7.1 WSW 28 37 15 20 1012.1 1012.0 0.0
26/06:30am 18.0 11.5 2.7 36 7.0 WSW 26 37 14 20 1011.6 1011.5 0.0
26/06:00am 18.4 12.2 2.3 34 7.4 WSW 24 33 13 18 1011.5 1011.4 0.0
26/05:30am 18.8 11.4 1.8 32 7.7 WSW 30 41 16 22 1011.1 1011.0 0.0
26/05:00am 19.2 12.2 2.1 32 7.8 WSW 28 46 15 25 1010.6 1010.5 0.0
26/04:59am 19.0 12.0 2.0 32 7.8 WSW 28 46 15 25 1010.6 1010.5 0.0
26/04:30am 19.7 12.8 2.6 32 7.9 WSW 28 37 15 20 1010.0 1009.9 0.0
26/04:00am 20.4 14.8 3.2 32 8.1 WSW 22 33 12 18 1009.6 1009.5 0.0
26/03:30am 20.0 15.1 4.9 37 7.4 WSW 20 30 11 16 1009.4 1009.3 0.0
26/03:00am 20.1 16.3 5.7 39 7.1 W 15 19 8 10 1009.2 1009.1 0.0
26/02:30am 20.1 17.3 6.8 42 6.7 WNW 11 17 6 9 1009.3 1009.2 0.0
26/02:00am 19.9 17.2 7.3 44 6.4 WNW 11 15 6 8 1009.2 1009.1 0.0
26/01:30am 20.1 18.1 8.8 48 5.9 NW 9 13 5 7 1009.1 1009.0 0.0
26/01:00am 19.0 17.0 11.6 62 4.1 WNW 13 15 7 8 1009.0 1008.9 0.0
26/12:30am 19.1 18.1 13.3 69 3.3 WNW 11 15 6 8 1009.1 1009.0 0.0
26/12:00am 18.9 18.7 14.6 76 2.5 WSW 9 13 5 7 1008.9 1008.8 0.0
 
Date/Time
EST
Tmp

°C
App
Tmp
°C
Dew
Point
°C
Rel
Hum
%
Delta-T

°C
Wind Press
QNH
hPa
Press
MSL
hPa
Rain
since
9 am
mm
Dir
 
Spd
km/h
Gust
km/h
Spd
kts
Gust
kts
25/11:30pm 19.7 19.3 15.1 75 2.7 WNW 11 13 6 7 1009.2 1009.1 0.0
25/11:00pm 20.5 20.8 16.1 76 2.6 NW 9 13 5 7 1009.4 1009.3 0.0
25/10:30pm 20.9 20.9 16.3 75 2.8 NW 11 15 6 8 1009.6 1009.5 0.0
25/10:00pm 21.6 20.9 16.3 72 3.2 N 15 19 8 10 1009.7 1009.6 0.0
25/09:30pm 21.9 21.7 16.6 72 3.2 NNW 13 17 7 9 1009.9 1009.8 0.0
25/09:00pm 21.6 21.4 16.6 73 3.0 NNW 13 17 7 9 1009.9 1009.8 0.0
25/08:30pm 21.4 21.1 16.4 73 3.0 NW 13 15 7 8 1009.9 1009.8 0.0
25/08:00pm 22.2 21.6 16.7 71 3.4 NNW 15 19 8 10 1009.7 1009.6 0.0
25/07:30pm 22.6 22.5 16.9 70 3.5 NNW 13 19 7 10 1009.4 1009.3 0.0
25/07:00pm 22.8 23.0 17.7 73 3.2 NNW 13 19 7 10 1009.1 1009.0 0.0
25/06:30pm 23.2 22.5 17.4 70 3.6 N 17 20 9 11 1008.7 1008.6 0.0
25/06:00pm 23.5 22.0 16.3 64 4.4 NNE 19 20 10 11 1008.3 1008.2 0.0
25/05:30pm 23.9 21.8 15.1 58 5.3 NNE 20 26 11 14 1008.1 1008.0 0.0
25/05:00pm 24.5 21.7 14.3 53 6.0 NNE 22 26 12 14 1008.0 1007.9 0.0
25/04:30pm 25.4 22.3 11.6 42 7.8 NE 19 22 10 12 1007.8 1007.7 0.0
25/04:00pm 25.7 23.3 11.5 41 8.1 NE 15 19 8 10 1007.8 1007.7 0.0
25/03:30pm 25.7 23.3 11.5 41 8.1 ENE 15 17 8 9 1007.7 1007.6 0.0
25/03:00pm 26.4 24.0 11.3 39 8.6 ENE 15 17 8 9 1007.7 1007.6 0.0
25/02:30pm 26.4 23.9 10.9 38 8.7 ENE 15 17 8 9 1007.8 1007.7 0.0
25/02:00pm 26.8 24.1 10.5 36 9.2 ENE 15 17 8 9 1007.9 1007.8 0.0
25/01:30pm 25.9 23.4 10.9 39 8.4 ENE 15 17 8 9 1008.1 1008.0 0.0
25/01:00pm 26.6 25.0 14.0 46 7.5 E 15 15 8 8 1008.5 1008.4 0.0
25/12:30pm 26.1 24.5 12.9 44 7.7 ENE 13 13 7 7 1008.8 1008.7 0.0
25/12:00pm 26.2 25.1 13.0 44 7.7 ENE 11 11 6 6 1009.2 1009.1 0.0
25/11:30am 26.3 25.9 14.1 47 7.3 NE 9 11 5 6 1009.7 1009.6 0.0
25/11:00am 25.4 24.9 13.9 49 6.8 NE 9 11 5 6 1010.2 1010.1 0.0
25/10:30am 24.7 24.7 14.2 52 6.2 ENE 7 9 4 5 1010.5 1010.4 0.0
25/10:00am 23.8 23.8 14.2 55 5.7 ENE 7 9 4 5 1010.9 1010.8 0.0
25/09:30am 23.9 25.1 14.9 57 5.4 SW 2 6 1 3 1011.1 1011.0 0.0
25/09:00am 21.7 22.0 14.6 64 4.2 W 6 7 3 4 1011.2 1011.1 0.0
25/08:30am 20.2 20.7 13.9 67 3.6 SSW 4 7 2 4 1011.2 1011.1 0.0
25/08:00am 19.2 19.1 13.8 71 3.1 SSW 7 9 4 5 1011.0 1010.9 0.0
25/07:30am 17.6 17.3 14.5 82 1.8 SW 9 11 5 6 1011.0 1010.9 0.0
25/07:00am 16.8 16.6 14.8 88 1.2 SW 9 9 5 5 1010.8 1010.7 0.0
25/06:30am 15.9 15.9 14.3 90 0.9 SW 7 9 4 5 1010.3 1010.2 0.0
25/06:00am 15.6 15.5 13.8 89 1.0 SSW 7 11 4 6 1010.1 1010.0 0.0
25/05:30am 15.7 15.6 13.9 89 1.0 SSW 7 9 4 5 1009.8 1009.7 0.0
25/05:00am 15.9 15.8 13.9 88 1.1 SW 7 9 4 5 1009.8 1009.7 0.0
25/04:30am 16.2 16.4 14.2 88 1.1 SW 6 7 3 4 1009.3 1009.2 0.0
25/04:00am 16.1 15.3 13.9 87 1.2 WSW 11 13 6 7 1009.4 1009.3 0.0
25/03:30am 16.2 16.1 13.9 86 1.3 SW 7 9 4 5 1009.4 1009.3 0.0
25/03:00am 16.4 15.9 13.9 85 1.4 SW 9 11 5 6 1009.4 1009.3 0.0
25/02:30am 17.1 17.2 14.4 84 1.5 WNW 7 9 4 5 1009.4 1009.3 0.0
25/02:00am 17.1 17.2 14.4 84 1.6 WNW 7 11 4 6 1009.5 1009.4 0.0
25/01:30am 17.1 17.2 14.4 84 1.5 WNW 7 11 4 6 1009.5 1009.4 0.0
25/01:00am 17.8 17.4 15.2 85 1.5 NW 11 13 6 7 1009.6 1009.5 0.0
25/12:30am 18.7 19.3 15.8 83 1.7 NW 7 9 4 5 1009.9 1009.8 0.0
25/12:00am 19.3 19.6 16.0 81 2.0 NNW 9 11 5 6 1010.0 1009.9 0.0
 
Date/Time
EST
Tmp

°C
App
Tmp
°C
Dew
Point
°C
Rel
Hum
%
Delta-T

°C
Wind Press
QNH
hPa
Press
MSL
hPa
Rain
since
9 am
mm
Dir
 
Spd
km/h
Gust
km/h
Spd
kts
Gust
kts
24/11:30pm 19.7 19.5 15.6 77 2.4 NW 11 15 6 8 1010.1 1010.0 0.0
24/11:00pm 20.3 19.8 15.9 76 2.6 N 13 15 7 8 1010.0 1009.9 0.0
24/10:30pm 20.4 20.6 15.8 75 2.7 NNW 9 15 5 8 1010.0 1009.9 0.0
24/10:00pm 20.0 19.8 15.8 77 2.5 NNW 11 13 6 7 1010.2 1010.1 0.0
24/09:30pm 20.2 20.5 16.0 77 2.5 NW 9 11 5 6 1010.3 1010.2 0.0
24/09:00pm 20.1 20.4 15.9 77 2.5 NW 9 11 5 6 1010.2 1010.1 0.0
24/08:30pm 20.9 21.0 16.5 76 2.7 NNW 11 15 6 8 1010.1 1010.0 0.0
24/08:00pm 21.4 21.6 16.8 75 2.8 N 11 13 6 7 1009.8 1009.7 0.0
24/07:30pm 21.8 21.9 16.5 72 3.2 NNW 11 15 6 8 1009.6 1009.5 0.0
24/07:00pm 21.8 21.4 16.3 71 3.3 N 13 15 7 8 1009.3 1009.2 0.0
24/06:30pm 22.5 21.3 16.1 67 3.9 NNE 17 19 9 10 1009.0 1008.9 0.0
24/06:00pm 22.7 20.9 15.5 64 4.3 NNE 19 24 10 13 1008.6 1008.5 0.0
24/05:30pm 22.9 20.9 15.5 63 4.4 NNE 20 24 11 13 1008.2 1008.1 0.0
24/05:00pm 23.3 20.8 15.1 60 4.9 NE 22 26 12 14 1007.9 1007.8 0.0
24/04:30pm 23.7 21.5 14.9 57 5.2 NE 20 24 11 13 1007.8 1007.7 0.0
24/04:00pm 23.9 22.1 15.4 59 5.1 NE 19 22 10 12 1007.7 1007.6 0.0
24/03:30pm 24.6 23.3 14.7 54 5.9 NE 15 17 8 9 1007.7 1007.6 0.0
24/03:00pm 25.2 23.6 14.0 49 6.6 NE 15 17 8 9 1007.7 1007.6 0.0
24/02:30pm 24.9 23.1 14.4 52 6.2 NE 17 19 9 10 1007.7 1007.6 0.0
24/02:00pm 24.5 22.6 14.3 53 6.0 NE 17 19 9 10 1007.8 1007.7 0.0
24/01:30pm 25.8 24.2 14.0 48 7.0 NE 15 17 8 9 1008.2 1008.1 0.0
24/01:00pm 25.7 24.1 13.9 48 7.0 NE 15 17 8 9 1008.3 1008.2 0.0
24/12:30pm 25.1 23.9 13.9 49 6.6 E 13 13 7 7 1008.7 1008.6 0.0
24/12:00pm 24.5 24.1 15.1 55 5.6 ENE 11 13 6 7 1009.2 1009.1 0.0
24/11:30am 24.1 23.8 14.5 55 5.7 E 9 11 5 6 1009.6 1009.5 0.0
24/11:00am 23.7 23.5 13.6 53 5.9 ENE 7 9 4 5 1010.4 1010.3 0.0
24/10:30am 23.7 23.9 14.7 57 5.3 NE 7 9 4 5 1010.9 1010.8 0.0
24/10:00am 22.7 22.7 15.3 63 4.4 ESE 9 11 5 6 1011.0 1010.9 0.0
24/09:30am 23.4 23.2 13.6 54 5.7 SE 7 11 4 6 1011.0 1010.9 0.0
24/09:00am 20.9 20.4 13.8 64 4.1 WSW 9 13 5 7 1011.1 1011.0 0.0
24/08:30am 19.4 18.8 13.6 69 3.3 WSW 9 11 5 6 1011.3 1011.2 0.0
24/08:00am 19.0 18.6 14.1 73 2.8 WSW 9 11 5 6 1011.0 1010.9 0.0
24/07:30am 17.4 17.2 13.5 78 2.2 SW 7 9 4 5 1011.1 1011.0 0.0

Latest Capital City Observations: Canberra | Sydney | Melbourne | Brisbane | Adelaide | Perth | Hobart | Darwin

Other Formats:

Comma delimited format used in spreadsheet applications
http://www.bom.gov.au/fwo/IDQ60901/IDQ60901.95591.axf

JavaScript Object Notation format (JSON) in row-major order
http://www.bom.gov.au/fwo/IDQ60901/IDQ60901.95591.json